Data for 08/29/2014

Time Sea-Level Adjusted Pressure Absolute Pressure Temperature Relative Humidity Dew Point   
(mb) (inHg) (mb) (inHg) (C) (F) (%) (C) (F)
00:05 1020 30.12 849 25.07 16.7 62.1 55 7.8 46.1
00:10 1020 30.12 849 25.07 16.8 62.2 55 7.7 45.9
00:15 1020 30.12 850 25.1 16.7 62.1 56 7.9 46.2
00:20 1020 30.12 850 25.1 16.9 62.3 52 7.2 44.9
00:25 1020 30.12 849 25.07 17.1 62.7 49 6.4 43.5
00:30 1020 30.12 849 25.07 17.6 63.7 48 6.5 43.8
00:35 1020 30.12 849 25.07 17.6 63.6 51 7.3 45.2
00:40 1020 30.12 849 25.07 17.6 63.6 50 7.2 44.9
00:45 1020 30.12 849 25.07 17.6 63.6 50 7.1 44.8
00:50 1020 30.12 849 25.07 17.6 63.6 51 7.5 45.6
00:55 1020 30.12 850 25.1 17.3 63.2 53 7.7 45.9
01:00 1020 30.12 850 25.1 17.3 63.2 52 7.5 45.5
01:05 1020 30.12 850 25.1 17.2 62.9 55 8.3 46.9
01:10 1020 30.12 850 25.1 16.9 62.3 56 8.1 46.6
01:15 1020 30.12 850 25.1 16.6 61.9 56 7.9 46.2
01:20 1020 30.12 850 25.1 16.7 62 57 8.3 47
01:25 1020 30.12 850 25.1 16.6 62 54 7.4 45.3
01:30 1020 30.12 850 25.1 16.3 61.4 56 7.6 45.8
01:35 1020 30.12 850 25.1 16.3 61.3 55 7.4 45.3
01:40 1020 30.12 850 25.1 16.3 61.3 58 8 46.4
01:45 1020 30.12 850 25.1 16.8 62.2 42 3.9 39
01:50 1020 30.12 849 25.07 17.8 64.1 46 6.1 43
01:55 1020 30.12 850 25.1 17.7 63.9 41 4.5 40.1
02:00 1020 30.12 850 25.1 17.8 64 50 7.3 45.1
02:05 1020 30.12 850 25.1 17 62.5 54 7.6 45.6
02:10 1020 30.12 849 25.07 16.4 61.6 57 8 46.4
02:15 1020 30.12 849 25.07 16.2 61.2 55 7.3 45.2
02:20 1020 30.12 850 25.1 16.3 61.3 56 7.6 45.6
02:25 1020 30.12 850 25.1 16.1 61.1 59 8.1 46.6
02:30 1020 30.12 850 25.1 15.8 60.4 56 7.2 44.9
02:35 1021 30.15 850 25.1 15.9 60.6 57 7.5 45.5
02:40 1020 30.12 850 25.1 15.6 60.1 59 7.6 45.7
02:45 1020 30.12 850 25.1 15.3 59.5 60 7.6 45.6
02:50 1020 30.12 850 25.1 15 59.1 61 7.7 45.8
02:55 1020 30.12 850 25.1 14.7 58.5 62 7.5 45.5
03:00 1020 30.12 850 25.1 14.7 58.5 61 7.4 45.4
03:05 1021 30.15 850 25.1 14.6 58.3 63 7.7 45.8
03:10 1021 30.15 850 25.1 14.5 58.1 63 7.7 45.8
03:15 1021 30.15 850 25.1 14.3 57.8 64 7.6 45.7
03:20 1021 30.15 850 25.1 14.2 57.6 64 7.6 45.6
03:25 1021 30.15 850 25.1 14.1 57.4 64 7.6 45.7
03:30 1021 30.15 850 25.1 14 57.2 65 7.6 45.7
03:35 1021 30.15 850 25.1 13.8 56.8 66 7.6 45.6
03:40 1021 30.15 850 25.1 13.7 56.6 66 7.5 45.6
03:45 1021 30.15 850 25.1 13.6 56.5 67 7.6 45.7
03:50 1021 30.15 850 25.1 13.6 56.4 68 7.8 46
03:55 1021 30.15 850 25.1 13.5 56.3 69 7.9 46.3
04:00 1021 30.15 850 25.1 13.3 56 69 7.9 46.3
04:05 1021 30.15 850 25.1 13.3 56 70 8 46.5
04:10 1021 30.15 850 25.1 13.3 55.9 70 8 46.3
04:15 1021 30.15 850 25.1 13.3 56 70 8 46.3
04:20 1021 30.15 850 25.1 13.3 56 70 7.9 46.3
04:25 1021 30.15 850 25.1 13.2 55.8 70 8 46.4
04:30 1021 30.15 850 25.1 13 55.4 72 8.1 46.6
04:35 1021 30.15 850 25.1 12.7 54.8 72 7.9 46.1
04:40 1021 30.15 850 25.1 12.7 54.8 72 7.7 45.9
04:45 1021 30.15 850 25.1 12.7 54.8 72 7.7 45.9
04:50 1021 30.15 850 25.1 12.7 54.8 72 7.8 46
04:55 1021 30.15 850 25.1 12.4 54.4 74 8 46.5
05:00 1021 30.15 850 25.1 12 53.6 75 7.7 45.9
05:05 1021 30.15 850 25.1 11.9 53.3 76 7.8 46
05:10 1021 30.15 850 25.1 11.8 53.3 74 7.4 45.3
05:15 1021 30.15 850 25.1 12 53.6 74 7.5 45.5
05:20 1021 30.15 850 25.1 12 53.5 74 7.6 45.6
05:25 1021 30.15 850 25.1 11.7 53.1 75 7.5 45.5
05:30 1021 30.15 850 25.1 11.6 53 75 7.5 45.4
05:35 1021 30.15 850 25.1 11.7 53.1 75 7.5 45.5
05:40 1021 30.15 850 25.1 11.7 53.1 75 7.5 45.6
05:45 1021 30.15 850 25.1 11.6 52.8 75 7.4 45.3
05:50 1021 30.15 850 25.1 11.6 52.9 75 7.4 45.4
05:55 1021 30.15 850 25.1 11.5 52.7 76 7.4 45.4
06:00 1021 30.15 850 25.1 11.3 52.4 76 7.3 45.1
06:05 1021 30.15 850 25.1 11.1 52 76 7.1 44.8
06:10 1021 30.15 850 25.1 11.1 52 76 7.1 44.8
06:15 1021 30.15 850 25.1 11.2 52.1 77 7.2 45
06:20 1021 30.15 850 25.1 11.3 52.4 76 7.3 45.1
06:25 1021 30.15 850 25.1 11.6 52.8 75 7.3 45.1
06:30 1021 30.15 850 25.1 11.8 53.3 74 7.3 45.2
06:35 1021 30.15 850 25.1 12.1 53.8 73 7.5 45.5
06:40 1021 30.15 850 25.1 12.2 53.9 73 7.6 45.6
06:45 1021 30.15 850 25.1 12.4 54.3 72 7.6 45.6
06:50 1021 30.15 850 25.1 12.5 54.6 73 7.8 46
06:55 1021 30.15 850 25.1 12.8 55 71 7.8 46
07:00 1021 30.15 850 25.1 12.9 55.2 70 7.6 45.7
07:05 1021 30.15 850 25.1 13.2 55.7 70 7.8 46
07:10 1021 30.15 850 25.1 13.6 56.4 67 7.6 45.6
07:15 1021 30.15 850 25.1 13.8 56.8 68 7.9 46.3
07:20 1021 30.15 850 25.1 14.3 57.7 65 8 46.3
07:25 1021 30.15 850 25.1 14.2 57.6 66 8 46.5
07:30 1021 30.15 850 25.1 14.4 57.9 65 7.9 46.2
07:35 1021 30.15 850 25.1 14.8 58.6 64 8.1 46.5
07:40 1021 30.15 850 25.1 15.4 59.7 61 8 46.4
07:45 1021 30.15 850 25.1 15 59 64 8.3 47
07:50 1021 30.15 850 25.1 14.5 58.1 65 8.1 46.5
07:55 1021 30.15 850 25.1 14.9 58.8 63 8 46.5
08:00 1021 30.15 850 25.1 14.8 58.7 65 8.5 47.3
08:05 1021 30.15 850 25.1 15.1 59.2 61 7.8 46.1
08:10 1021 30.15 850 25.1 15 59 64 8.4 47.2
08:15 1021 30.15 850 25.1 15.3 59.5 64 8.5 47.3
08:20 1021 30.15 850 25.1 15.2 59.4 64 8.6 47.5
08:25 1021 30.15 850 25.1 15.3 59.5 62 8 46.5
08:30 1021 30.15 850 25.1 15.5 59.9 63 8.6 47.5
08:35 1021 30.15 850 25.1 15.7 60.2 62 8.4 47.2
08:40 1021 30.15 850 25.1 15.9 60.6 61 8.4 47.2
08:45 1021 30.15 850 25.1 16.7 62 58 8.4 47.2
08:50 1021 30.15 850 25.1 17.3 63.1 57 8.9 47.9
08:55 1021 30.15 850 25.1 17.6 63.7 57 9.2 48.5
09:00 1021 30.15 850 25.1 17.1 62.7 59 9.2 48.5
09:05 1021 30.15 850 25.1 17.1 62.7 59 9 48.2
09:10 1021 30.15 850 25.1 17.8 64.1 57 9.4 48.9
09:15 1021 30.15 850 25.1 18 64.4 54 8.6 47.6
09:20 1021 30.15 850 25.1 18.4 65.1 54 8.9 48
09:25 1021 30.15 850 25.1 18.3 64.9 53 8.6 47.5
09:30 1021 30.15 850 25.1 18.1 64.5 57 9.6 49.2
09:35 1021 30.15 850 25.1 18.1 64.5 56 9.2 48.6
09:40 1021 30.15 850 25.1 17.7 63.9 56 9 48.2
09:45 1020 30.12 850 25.1 19 66.2 52 9 48.1
09:50 1020 30.12 850 25.1 19 66.2 53 9.3 48.8
09:55 1020 30.12 850 25.1 19.4 66.9 50 8.7 47.7
10:00 1020 30.12 850 25.1 20 67.9 47 8.5 47.3
10:05 1020 30.12 850 25.1 20.3 68.5 48 8.9 48
10:10 1020 30.12 850 25.1 19.4 66.8 51 9 48.1
10:15 1020 30.12 850 25.1 19.9 67.9 48 8.7 47.6
10:20 1020 30.12 850 25.1 20.3 68.5 45 8 46.4
10:25 1020 30.12 849 25.07 20.6 69.2 46 8.9 48
10:30 1020 30.12 849 25.07 19.9 67.8 47 8.4 47
10:35 1020 30.12 849 25.07 19.9 67.8 45 7.8 46.1
10:40 1020 30.12 849 25.07 19.8 67.6 45 7.5 45.6
10:45 1020 30.12 849 25.07 20.4 68.6 43 7.6 45.7
10:50 1020 30.12 849 25.07 21.4 70.6 40 7.5 45.6
10:55 1020 30.12 849 25.07 20.9 69.6 42 7.7 45.8
11:00 1020 30.12 849 25.07 20.8 69.5 41 7.4 45.2
11:05 1020 30.12 849 25.07 21.2 70.1 41 7.4 45.4
11:10 1020 30.12 849 25.07 21.4 70.6 39 7.1 44.8
11:15 1020 30.12 849 25.07 22.2 71.9 37 6.9 44.5
11:20 1020 30.12 849 25.07 22.3 72.1 35 6.5 43.7
11:25 1020 30.12 849 25.07 22.7 72.9 33 6 42.8
11:30 1020 30.12 849 25.07 22.8 73 33 5.9 42.6
11:35 1019 30.09 849 25.07 23.3 73.9 33 6.5 43.6
11:40 1019 30.09 849 25.07 22.7 72.9 33 6 42.8
11:45 1019 30.09 849 25.07 23 73.3 32 5.7 42.3
11:50 1019 30.09 848 25.04 23 73.3 33 5.9 42.6
11:55 1019 30.09 848 25.04 22.5 72.5 34 5.9 42.7
12:00 1019 30.09 848 25.04 22 71.6 33 5.3 41.6
12:05 1019 30.09 848 25.04 23.2 73.8 31 5.4 41.8
12:10 1019 30.09 848 25.04 24.3 75.7 29 5.6 42.1
12:15 1019 30.09 848 25.04 23.8 74.9 29 4.9 40.8
12:20 1019 30.09 848 25.04 24.6 76.3 28 5.2 41.3
12:25 1019 30.09 848 25.04 24.5 76 29 5.6 42.1
12:30 1019 30.09 848 25.04 25 77.1 28 5.6 42.1
12:35 1019 30.09 848 25.04 24.8 76.7 29 5.8 42.4
12:40 1019 30.09 848 25.04 25.3 77.5 27 5.3 41.6
12:45 1019 30.09 848 25.04 25.4 77.7 27 5.3 41.6
12:50 1019 30.09 848 25.04 25.2 77.3 28 5.8 42.5
12:55 1018 30.06 848 25.04 24 75.2 31 5.8 42.5
13:00 1018 30.06 848 25.04 24.1 75.3 29 5.1 41.2
13:05 1018 30.06 848 25.04 25.1 77.1 29 5.9 42.7
13:10 1018 30.06 847 25.01 25.5 78 27 5.6 42.1
13:15 1018 30.06 847 25.01 26 78.8 27 6 42.8
13:20 1018 30.06 847 25.01 25.9 78.6 28 6.3 43.4
13:25 1018 30.06 847 25.01 25.3 77.5 27 5.3 41.6
13:30 1018 30.06 847 25.01 25.9 78.6 27 5.9 42.5
13:35 1018 30.06 847 25.01 25.2 77.3 27 5.4 41.6
13:40 1018 30.06 847 25.01 26 78.8 27 6 42.8
13:45 1018 30.06 847 25.01 26.4 79.5 25 5 40.9
13:50 1018 30.06 847 25.01 26.8 80.3 25 5.2 41.4
13:55 1017 30.03 847 25.01 27.6 81.8 23 5.2 41.3
14:00 1017 30.03 847 25.01 26.9 80.5 25 5.3 41.6
14:05 1017 30.03 846 24.98 26.4 79.5 26 5.5 41.9
14:10 1017 30.03 846 24.98 26 78.7 25 4.7 40.5
14:15 1017 30.03 846 24.98 26.3 79.3 24 4.5 40.2
14:20 1017 30.03 846 24.98 27.6 81.8 23 5 40.9
14:25 1017 30.03 846 24.98 27.5 81.5 24 5.7 42.3
14:30 1017 30.03 846 24.98 27.1 80.7 23 4.7 40.5
14:35 1017 30.03 846 24.98 26.6 80 23 4.3 39.7
14:40 1017 30.03 846 24.98 27.1 80.7 23 4.2 39.5
14:45 1017 30.03 846 24.98 26.9 80.4 24 4.6 40.3
14:50 1017 30.03 846 24.98 26.8 80.2 23 4.1 39.5
14:55 1017 30.03 846 24.98 27.4 81.2 21 3.5 38.4
15:00 1017 30.03 846 24.98 27.5 81.5 21 3.6 38.4
15:05 1016 30 846 24.98 26.8 80.3 23 4.2 39.5
15:10 1016 30 846 24.98 26.5 79.6 23 4.2 39.6
15:15 1016 30 846 24.98 27.5 81.5 21 3.5 38.2
15:20 1016 30 846 24.98 28 82.3 22 4.6 40.3
15:25 1016 30 845 24.95 28.3 83 21 4.2 39.6
15:30 1016 30 845 24.95 28.6 83.5 21 4.7 40.5
15:35 1016 30 845 24.95 28.4 83 20 3.6 38.5
15:40 1016 30 845 24.95 28 82.4 21 3.9 39
15:45 1016 30 845 24.95 28.2 82.7 20 3.5 38.3
15:50 1016 30 845 24.95 28.3 83 20 3.6 38.4
15:55 1016 30 845 24.95 27.6 81.6 21 3.8 38.8
16:00 1016 30 845 24.95 28.1 82.6 20 3.5 38.2
16:05 1016 30 845 24.95 27.8 82 21 3.5 38.3
16:10 1016 30 845 24.95 27.3 81.2 26 6.3 43.3
16:15 1016 30 845 24.95 27.9 82.1 20 3 37.4
16:20 1016 30 845 24.95 27.6 81.7 21 3.6 38.4
16:25 1016 30 845 24.95 27.8 82.1 19 2.6 36.8
16:30 1016 30 845 24.95 27.4 81.3 22 4.2 39.6
16:35 1016 30 845 24.95 27.2 80.9 22 3.8 38.8
16:40 1016 30 845 24.95 27 80.6 22 3.4 38.2
16:45 1016 30 845 24.95 26.5 79.7 24 4.5 40.1
16:50 1016 30 845 24.95 26.3 79.4 23 3.8 38.8
16:55 1015 29.97 845 24.95 26.4 79.4 22 2.9 37.2
17:00 1015 29.97 845 24.95 26.4 79.5 23 3.7 38.7
17:05 1015 29.97 845 24.95 26.5 79.8 23 4 39.3
17:10 1015 29.97 845 24.95 26.7 80.1 22 3.3 37.9
17:15 1015 29.97 845 24.95 26.2 79.1 22 3.1 37.5
17:20 1015 29.97 845 24.95 26.1 79 22 2.8 37
17:25 1015 29.97 845 24.95 26.2 79.1 21 2.7 36.9
17:30 1015 29.97 845 24.95 25.9 78.5 23 3.6 38.5
17:35 1015 29.97 844 24.92 25.8 78.4 22 2.4 36.4
17:40 1015 29.97 844 24.92 25.7 78.2 22 3 37.3
17:45 1015 29.97 844 24.92 25.8 78.4 22 2.5 36.4
17:50 1015 29.97 844 24.92 25.7 78.3 23 3.5 38.2
17:55 1015 29.97 844 24.92 25.6 78.1 24 3.9 39
18:00 1015 29.97 844 24.92 25.6 78.1 23 3.1 37.5
18:05 1015 29.97 844 24.92 25.7 78.2 22 2.6 36.6
18:10 1015 29.97 844 24.92 25.7 78.2 23 3 37.4
18:15 1015 29.97 844 24.92 25.6 78 24 4 39.1
18:20 1015 29.97 844 24.92 25.3 77.6 26 4.5 40
18:25 1015 29.97 844 24.92 25 77 26 4.6 40.2
18:30 1015 29.97 844 24.92 24.9 76.8 28 5.3 41.6
18:35 1015 29.97 844 24.92 24.5 76.1 32 6.8 44.2
18:40 1015 29.97 844 24.92 24 75.3 32 6.5 43.7
18:45 1015 29.97 844 24.92 23.6 74.4 38 8.8 47.9
18:50 1015 29.97 844 24.92 22.7 72.8 37 7.4 45.3
18:55 1015 29.97 844 24.92 22.5 72.5 40 8.6 47.5
19:00 1015 29.97 844 24.92 22.5 72.4 40 8.3 47
19:05 1015 29.97 844 24.92 22.4 72.3 39 7.8 46.1
19:10 1015 29.97 844 24.92 22.2 72 43 9.1 48.3
19:15 1015 29.97 844 24.92 21.8 71.3 42 8.4 47.1
19:20 1015 29.97 844 24.92 21.6 70.9 40 7.5 45.5
19:25 1015 29.97 844 24.92 21.1 70 44 8.5 47.3
19:30 1015 29.97 844 24.92 20.4 68.8 46 8.6 47.5
19:35 1015 29.97 844 24.92 20.3 68.5 46 8.5 47.3
19:40 1015 29.97 844 24.92 20 68 47 8.5 47.2
19:45 1015 29.97 844 24.92 20 67.9 42 6.7 44.1
19:50 1015 29.97 844 24.92 20.4 68.8 43 7.6 45.6
19:55 1015 29.97 844 24.92 20.3 68.5 45 8.2 46.7
20:00 1015 29.97 845 24.95 20.2 68.4 45 8 46.5
20:05 1016 30 845 24.95 20.4 68.6 44 7.8 46
20:10 1016 30 845 24.95 20.1 68.1 48 8.8 47.9
20:15 1016 30 845 24.95 20.1 68.1 48 8.9 48.1
20:20 1016 30 845 24.95 19.6 67.3 50 9.1 48.5
20:25 1015 29.97 845 24.95 20.2 68.3 43 7.3 45.1
20:30 1016 30 845 24.95 21 69.7 40 6.9 44.4
20:35 1016 30 845 24.95 20.9 69.7 42 7.6 45.7
20:40 1016 30 845 24.95 20.3 68.6 45 8.1 46.6
20:45 1016 30 845 24.95 20.1 68.3 44 7.6 45.7
20:50 1015 29.97 844 24.92 20.2 68.3 39 6 42.8
20:55 1015 29.97 844 24.92 20.5 69 33 3.8 38.8
21:00 1015 29.97 844 24.92 20.7 69.3 33 4 39.2
21:05 1015 29.97 844 24.92 20.8 69.5 33 4.1 39.4
21:10 1015 29.97 844 24.92 21 69.7 30 3.1 37.6
21:15 1015 29.97 844 24.92 21 69.8 31 3.3 38
21:20 1015 29.97 844 24.92 20.8 69.4 34 4.5 40.1
21:25 1015 29.97 844 24.92 20.2 68.4 35 4.5 40
21:30 1015 29.97 844 24.92 19.8 67.6 38 5.2 41.3
21:35 1015 29.97 844 24.92 19.3 66.7 39 5 41
21:40 1015 29.97 844 24.92 19.2 66.6 35 3.7 38.6
21:45 1015 29.97 844 24.92 19.4 66.9 34 3.4 38.1
21:50 1015 29.97 844 24.92 19.5 67.1 34 3.4 38.2
21:55 1015 29.97 844 24.92 19.5 67.2 36 4.1 39.4
22:00 1015 29.97 844 24.92 19.4 66.9 36 4.2 39.5
22:05 1015 29.97 844 24.92 19.5 67.1 35 3.8 38.8
22:10 1015 29.97 845 24.95 20 68.1 35 4.1 39.5
22:15 1016 30 845 24.95 20 68.1 36 4.7 40.5
22:20 1016 30 845 24.95 19.9 67.7 33 3.5 38.2
22:25 1016 30 845 24.95 20.2 68.4 35 4.3 39.7
22:30 1015 29.97 845 24.95 20 68 35 4.3 39.7
22:35 1015 29.97 845 24.95 20.1 68.2 35 4.2 39.6
22:40 1016 30 845 24.95 20.1 68.2 35 4.3 39.7
22:45 1016 30 845 24.95 20.1 68.1 34 3.7 38.7
22:50 1016 30 845 24.95 20 68 39 5.7 42.2
22:55 1016 30 845 24.95 20 67.9 39 5.9 42.6
23:00 1015 29.97 844 24.92 20.1 68.2 40 6.2 43.1
23:05 1015 29.97 844 24.92 19.3 66.8 44 7 44.6
23:10 1015 29.97 844 24.92 18.6 65.6 45 6.5 43.8
23:15 1015 29.97 844 24.92 18.5 65.3 48 7.3 45.1
23:20 1015 29.97 844 24.92 18.1 64.5 47 6.7 44.1
23:25 1015 29.97 844 24.92 18 64.4 46 6.3 43.3
23:30 1015 29.97 844 24.92 18.5 65.4 40 4.8 40.6
23:35 1014 29.94 844 24.92 19.2 66.5 40 5.3 41.5
23:40 1014 29.94 844 24.92 19.2 66.6 42 6.2 43.1
23:45 1015 29.97 844 24.92 18.9 65.9 41 5.4 41.8
23:50 1015 29.97 844 24.92 18.9 66.1 38 4.6 40.3
23:55 1015 29.97 844 24.92 19.5 67.1 39 5.2 41.4
24:00 1015 29.97 844 24.92 19.4 67 40 5.7 42.3